sensor_id;sensor_type;location;lat;lon;timestamp;temperature;humidity
39779;DHT22;25454;49.878;8.618;2023-06-14T00:02:52;18.70;63.70
39779;DHT22;25454;49.878;8.618;2023-06-14T00:07:56;18.60;63.30
39779;DHT22;25454;49.878;8.618;2023-06-14T00:12:56;18.50;63.60
39779;DHT22;25454;49.878;8.618;2023-06-14T00:18:01;18.40;63.90
39779;DHT22;25454;49.878;8.618;2023-06-14T00:23:01;18.30;64.40
39779;DHT22;25454;49.878;8.618;2023-06-14T00:28:02;18.30;64.70
39779;DHT22;25454;49.878;8.618;2023-06-14T00:33:03;18.30;64.70
39779;DHT22;25454;49.878;8.618;2023-06-14T00:38:04;18.20;65.00
39779;DHT22;25454;49.878;8.618;2023-06-14T00:43:05;18.10;65.20
39779;DHT22;25454;49.878;8.618;2023-06-14T00:48:06;18.00;65.40
39779;DHT22;25454;49.878;8.618;2023-06-14T00:53:08;17.90;65.90
39779;DHT22;25454;49.878;8.618;2023-06-14T00:58:09;17.90;66.00
39779;DHT22;25454;49.878;8.618;2023-06-14T01:03:10;17.70;65.70
39779;DHT22;25454;49.878;8.618;2023-06-14T01:13:37;17.70;66.10
39779;DHT22;25454;49.878;8.618;2023-06-14T01:18:38;17.70;66.50
39779;DHT22;25454;49.878;8.618;2023-06-14T01:23:39;17.60;66.80
39779;DHT22;25454;49.878;8.618;2023-06-14T01:28:39;17.50;67.30
39779;DHT22;25454;49.878;8.618;2023-06-14T01:33:40;17.50;67.40
39779;DHT22;25454;49.878;8.618;2023-06-14T01:38:42;17.40;67.40
39779;DHT22;25454;49.878;8.618;2023-06-14T01:43:44;17.40;67.60
39779;DHT22;25454;49.878;8.618;2023-06-14T01:48:46;17.40;67.00
39779;DHT22;25454;49.878;8.618;2023-06-14T01:53:46;17.40;66.50
39779;DHT22;25454;49.878;8.618;2023-06-14T01:58:47;17.40;66.30
39779;DHT22;25454;49.878;8.618;2023-06-14T02:03:48;17.40;66.00
39779;DHT22;25454;49.878;8.618;2023-06-14T02:08:49;17.40;66.40
39779;DHT22;25454;49.878;8.618;2023-06-14T02:13:50;17.40;66.70
39779;DHT22;25454;49.878;8.618;2023-06-14T02:18:51;17.30;67.10
39779;DHT22;25454;49.878;8.618;2023-06-14T02:23:51;17.30;67.60
39779;DHT22;25454;49.878;8.618;2023-06-14T02:28:52;17.20;67.70
39779;DHT22;25454;49.878;8.618;2023-06-14T02:33:52;17.10;68.20
39779;DHT22;25454;49.878;8.618;2023-06-14T02:38:54;17.00;68.80
39779;DHT22;25454;49.878;8.618;2023-06-14T02:43:55;16.90;69.40
39779;DHT22;25454;49.878;8.618;2023-06-14T02:48:56;16.80;70.00
39779;DHT22;25454;49.878;8.618;2023-06-14T02:53:57;16.80;70.70
39779;DHT22;25454;49.878;8.618;2023-06-14T02:58:57;16.70;71.00
39779;DHT22;25454;49.878;8.618;2023-06-14T03:03:58;16.70;71.20
39779;DHT22;25454;49.878;8.618;2023-06-14T03:09:00;16.70;71.00
39779;DHT22;25454;49.878;8.618;2023-06-14T03:14:01;16.60;71.20
39779;DHT22;25454;49.878;8.618;2023-06-14T03:19:04;16.60;71.40
39779;DHT22;25454;49.878;8.618;2023-06-14T03:24:05;16.50;71.80
39779;DHT22;25454;49.878;8.618;2023-06-14T03:29:06;16.50;72.30
39779;DHT22;25454;49.878;8.618;2023-06-14T03:34:06;16.30;72.80
39779;DHT22;25454;49.878;8.618;2023-06-14T03:39:10;16.20;73.40
39779;DHT22;25454;49.878;8.618;2023-06-14T03:44:10;16.20;73.80
39779;DHT22;25454;49.878;8.618;2023-06-14T03:49:11;16.20;73.90
39779;DHT22;25454;49.878;8.618;2023-06-14T03:54:12;16.20;73.90
39779;DHT22;25454;49.878;8.618;2023-06-14T03:59:13;16.20;73.60
39779;DHT22;25454;49.878;8.618;2023-06-14T04:04:14;16.30;73.20
39779;DHT22;25454;49.878;8.618;2023-06-14T04:09:16;16.40;72.70
39779;DHT22;25454;49.878;8.618;2023-06-14T04:14:19;16.40;72.10
39779;DHT22;25454;49.878;8.618;2023-06-14T04:19:20;16.60;72.10
39779;DHT22;25454;49.878;8.618;2023-06-14T04:24:20;16.70;71.70
39779;DHT22;25454;49.878;8.618;2023-06-14T04:29:21;16.80;71.60
39779;DHT22;25454;49.878;8.618;2023-06-14T04:34:25;16.80;71.10
39779;DHT22;25454;49.878;8.618;2023-06-14T04:39:29;17.10;70.30
39779;DHT22;25454;49.878;8.618;2023-06-14T04:44:30;17.40;69.60
39779;DHT22;25454;49.878;8.618;2023-06-14T04:49:32;17.30;69.30
39779;DHT22;25454;49.878;8.618;2023-06-14T04:54:33;17.40;69.60
39779;DHT22;25454;49.878;8.618;2023-06-14T04:59:34;17.50;69.10
39779;DHT22;25454;49.878;8.618;2023-06-14T05:04:35;17.70;68.30
39779;DHT22;25454;49.878;8.618;2023-06-14T05:09:40;19.40;64.20
39779;DHT22;25454;49.878;8.618;2023-06-14T05:14:40;21.10;58.70
39779;DHT22;25454;49.878;8.618;2023-06-14T05:19:41;22.50;55.90
39779;DHT22;25454;49.878;8.618;2023-06-14T05:24:41;23.40;53.20
39779;DHT22;25454;49.878;8.618;2023-06-14T05:29:42;23.70;52.30
39779;DHT22;25454;49.878;8.618;2023-06-14T05:34:43;23.90;52.60
39779;DHT22;25454;49.878;8.618;2023-06-14T05:39:43;23.80;51.40
39779;DHT22;25454;49.878;8.618;2023-06-14T05:44:44;24.20;51.00
39779;DHT22;25454;49.878;8.618;2023-06-14T05:49:44;24.40;50.80
39779;DHT22;25454;49.878;8.618;2023-06-14T05:54:45;24.70;50.30
39779;DHT22;25454;49.878;8.618;2023-06-14T05:59:47;24.80;50.00
39779;DHT22;25454;49.878;8.618;2023-06-14T06:04:47;25.40;48.80
39779;DHT22;25454;49.878;8.618;2023-06-14T06:09:51;25.50;48.40
39779;DHT22;25454;49.878;8.618;2023-06-14T06:14:52;25.60;48.30
39779;DHT22;25454;49.878;8.618;2023-06-14T06:19:54;26.30;47.80
39779;DHT22;25454;49.878;8.618;2023-06-14T06:24:54;26.50;46.50
39779;DHT22;25454;49.878;8.618;2023-06-14T06:29:55;26.50;46.30
39779;DHT22;25454;49.878;8.618;2023-06-14T06:35:02;27.00;46.10
39779;DHT22;25454;49.878;8.618;2023-06-14T06:40:04;27.20;46.20
39779;DHT22;25454;49.878;8.618;2023-06-14T06:45:06;27.50;46.00
39779;DHT22;25454;49.878;8.618;2023-06-14T06:50:09;27.50;45.60
39779;DHT22;25454;49.878;8.618;2023-06-14T06:55:10;27.50;45.30
39779;DHT22;25454;49.878;8.618;2023-06-14T07:00:11;28.10;44.40
39779;DHT22;25454;49.878;8.618;2023-06-14T07:05:13;28.30;44.60
39779;DHT22;25454;49.878;8.618;2023-06-14T07:10:16;28.40;43.90
39779;DHT22;25454;49.878;8.618;2023-06-14T07:15:20;29.10;43.50
39779;DHT22;25454;49.878;8.618;2023-06-14T07:20:21;29.50;42.50
39779;DHT22;25454;49.878;8.618;2023-06-14T07:25:23;29.20;42.30
39779;DHT22;25454;49.878;8.618;2023-06-14T07:30:23;29.30;42.30
39779;DHT22;25454;49.878;8.618;2023-06-14T07:35:26;29.60;41.70
39779;DHT22;25454;49.878;8.618;2023-06-14T07:40:26;30.10;41.40
39779;DHT22;25454;49.878;8.618;2023-06-14T07:45:27;30.40;40.80
39779;DHT22;25454;49.878;8.618;2023-06-14T07:50:28;31.30;39.40
39779;DHT22;25454;49.878;8.618;2023-06-14T07:55:29;32.20;38.60
39779;DHT22;25454;49.878;8.618;2023-06-14T08:00:33;31.30;39.20
39779;DHT22;25454;49.878;8.618;2023-06-14T08:05:33;31.10;39.40
39779;DHT22;25454;49.878;8.618;2023-06-14T08:10:37;31.50;39.40
39779;DHT22;25454;49.878;8.618;2023-06-14T08:15:38;31.60;38.50
39779;DHT22;25454;49.878;8.618;2023-06-14T08:20:39;31.60;39.10
39779;DHT22;25454;49.878;8.618;2023-06-14T08:25:40;31.40;39.00
39779;DHT22;25454;49.878;8.618;2023-06-14T08:30:42;33.10;38.10
39779;DHT22;25454;49.878;8.618;2023-06-14T08:35:43;32.70;37.50
39779;DHT22;25454;49.878;8.618;2023-06-14T08:40:45;35.00;35.50
39779;DHT22;25454;49.878;8.618;2023-06-14T08:45:54;35.30;34.40
39779;DHT22;25454;49.878;8.618;2023-06-14T08:51:00;35.00;33.50
39779;DHT22;25454;49.878;8.618;2023-06-14T08:56:05;33.50;34.60
39779;DHT22;25454;49.878;8.618;2023-06-14T09:01:08;31.70;36.80
39779;DHT22;25454;49.878;8.618;2023-06-14T09:06:12;30.40;38.80
39779;DHT22;25454;49.878;8.618;2023-06-14T09:11:17;31.50;38.60
39779;DHT22;25454;49.878;8.618;2023-06-14T09:16:19;33.90;36.30
39779;DHT22;25454;49.878;8.618;2023-06-14T09:21:19;34.20;33.90
39779;DHT22;25454;49.878;8.618;2023-06-14T09:26:22;34.30;33.20
39779;DHT22;25454;49.878;8.618;2023-06-14T09:31:28;35.00;33.30
39779;DHT22;25454;49.878;8.618;2023-06-14T09:36:32;34.70;33.00
39779;DHT22;25454;49.878;8.618;2023-06-14T09:41:37;34.60;34.40
39779;DHT22;25454;49.878;8.618;2023-06-14T09:46:38;36.10;32.70
39779;DHT22;25454;49.878;8.618;2023-06-14T09:51:45;36.30;31.70
39779;DHT22;25454;49.878;8.618;2023-06-14T09:56:47;35.30;31.70
39779;DHT22;25454;49.878;8.618;2023-06-14T10:01:49;34.10;32.90
39779;DHT22;25454;49.878;8.618;2023-06-14T10:06:50;34.80;33.20
39779;DHT22;25454;49.878;8.618;2023-06-14T10:11:53;35.40;32.10
39779;DHT22;25454;49.878;8.618;2023-06-14T10:17:02;32.90;34.40
39779;DHT22;25454;49.878;8.618;2023-06-14T10:22:09;34.60;33.20
39779;DHT22;25454;49.878;8.618;2023-06-14T10:27:14;35.20;32.80
39779;DHT22;25454;49.878;8.618;2023-06-14T10:32:17;32.20;34.90
39779;DHT22;25454;49.878;8.618;2023-06-14T10:37:19;31.90;35.70
39779;DHT22;25454;49.878;8.618;2023-06-14T10:42:20;32.10;36.10
39779;DHT22;25454;49.878;8.618;2023-06-14T10:47:35;32.70;35.10
39779;DHT22;25454;49.878;8.618;2023-06-14T10:52:41;32.70;34.80
39779;DHT22;25454;49.878;8.618;2023-06-14T10:57:50;31.60;36.10
39779;DHT22;25454;49.878;8.618;2023-06-14T11:13:55;34.20;32.70
39779;DHT22;25454;49.878;8.618;2023-06-14T11:18:55;34.00;31.90
39779;DHT22;25454;49.878;8.618;2023-06-14T11:23:56;32.90;34.00
39779;DHT22;25454;49.878;8.618;2023-06-14T11:29:00;30.50;38.00
39779;DHT22;25454;49.878;8.618;2023-06-14T11:34:01;29.40;39.60
39779;DHT22;25454;49.878;8.618;2023-06-14T11:39:05;29.00;40.40
39779;DHT22;25454;49.878;8.618;2023-06-14T11:44:07;28.90;40.60
39779;DHT22;25454;49.878;8.618;2023-06-14T11:49:08;28.90;39.70
39779;DHT22;25454;49.878;8.618;2023-06-14T11:54:10;28.10;40.20
39779;DHT22;25454;49.878;8.618;2023-06-14T11:59:13;28.00;40.70
39779;DHT22;25454;49.878;8.618;2023-06-14T12:04:14;28.10;40.70
39779;DHT22;25454;49.878;8.618;2023-06-14T12:09:14;28.60;41.00
39779;DHT22;25454;49.878;8.618;2023-06-14T12:14:18;28.50;40.60
39779;DHT22;25454;49.878;8.618;2023-06-14T12:19:19;28.10;40.70
39779;DHT22;25454;49.878;8.618;2023-06-14T12:24:19;27.90;41.20
39779;DHT22;25454;49.878;8.618;2023-06-14T12:29:20;28.00;41.20
39779;DHT22;25454;49.878;8.618;2023-06-14T12:34:21;27.10;41.90
39779;DHT22;25454;49.878;8.618;2023-06-14T12:39:22;26.60;42.80
39779;DHT22;25454;49.878;8.618;2023-06-14T12:44:25;26.50;43.40
39779;DHT22;25454;49.878;8.618;2023-06-14T12:49:26;26.60;43.00
39779;DHT22;25454;49.878;8.618;2023-06-14T12:54:27;26.50;43.00
39779;DHT22;25454;49.878;8.618;2023-06-14T12:59:28;26.70;42.40
39779;DHT22;25454;49.878;8.618;2023-06-14T13:04:33;26.70;42.80
39779;DHT22;25454;49.878;8.618;2023-06-14T13:09:33;27.10;42.00
39779;DHT22;25454;49.878;8.618;2023-06-14T13:14:34;26.90;42.80
39779;DHT22;25454;49.878;8.618;2023-06-14T13:19:35;26.40;43.20
39779;DHT22;25454;49.878;8.618;2023-06-14T13:24:36;26.50;43.80
39779;DHT22;25454;49.878;8.618;2023-06-14T13:29:36;26.40;43.80
39779;DHT22;25454;49.878;8.618;2023-06-14T13:34:37;26.20;44.00
39779;DHT22;25454;49.878;8.618;2023-06-14T13:39:38;26.10;43.70
39779;DHT22;25454;49.878;8.618;2023-06-14T13:44:39;26.20;43.90
39779;DHT22;25454;49.878;8.618;2023-06-14T13:49:39;25.90;43.50
39779;DHT22;25454;49.878;8.618;2023-06-14T13:54:41;26.20;42.80
39779;DHT22;25454;49.878;8.618;2023-06-14T13:59:42;27.00;42.60
39779;DHT22;25454;49.878;8.618;2023-06-14T14:04:46;27.00;42.30
39779;DHT22;25454;49.878;8.618;2023-06-14T14:09:52;26.40;43.40
39779;DHT22;25454;49.878;8.618;2023-06-14T14:14:53;25.80;44.00
39779;DHT22;25454;49.878;8.618;2023-06-14T14:19:54;25.30;44.80
39779;DHT22;25454;49.878;8.618;2023-06-14T14:24:55;25.40;44.10
39779;DHT22;25454;49.878;8.618;2023-06-14T14:29:56;25.40;43.60
39779;DHT22;25454;49.878;8.618;2023-06-14T14:34:56;25.90;43.40
39779;DHT22;25454;49.878;8.618;2023-06-14T14:39:57;26.70;43.30
39779;DHT22;25454;49.878;8.618;2023-06-14T14:44:57;26.90;42.00
39779;DHT22;25454;49.878;8.618;2023-06-14T14:49:58;26.70;41.90
39779;DHT22;25454;49.878;8.618;2023-06-14T14:54:58;26.20;42.60
39779;DHT22;25454;49.878;8.618;2023-06-14T14:59:59;25.70;43.50
39779;DHT22;25454;49.878;8.618;2023-06-14T15:04:59;25.20;44.60
39779;DHT22;25454;49.878;8.618;2023-06-14T15:10:01;25.10;43.90
39779;DHT22;25454;49.878;8.618;2023-06-14T15:15:02;25.20;44.00
39779;DHT22;25454;49.878;8.618;2023-06-14T15:20:04;25.50;44.00
39779;DHT22;25454;49.878;8.618;2023-06-14T15:25:06;25.60;44.20
39779;DHT22;25454;49.878;8.618;2023-06-14T15:30:07;25.50;43.20
39779;DHT22;25454;49.878;8.618;2023-06-14T15:35:08;25.60;41.90
39779;DHT22;25454;49.878;8.618;2023-06-14T15:40:09;25.90;42.70
39779;DHT22;25454;49.878;8.618;2023-06-14T15:45:10;26.40;42.90
39779;DHT22;25454;49.878;8.618;2023-06-14T15:50:11;26.60;44.00
39779;DHT22;25454;49.878;8.618;2023-06-14T15:55:11;26.10;42.90
39779;DHT22;25454;49.878;8.618;2023-06-14T16:00:13;25.80;44.60
39779;DHT22;25454;49.878;8.618;2023-06-14T16:05:17;25.40;45.70
39779;DHT22;25454;49.878;8.618;2023-06-14T16:10:18;25.00;45.70
39779;DHT22;25454;49.878;8.618;2023-06-14T16:15:18;25.00;45.70
39779;DHT22;25454;49.878;8.618;2023-06-14T16:20:19;25.10;43.60
39779;DHT22;25454;49.878;8.618;2023-06-14T16:25:20;25.30;44.40
39779;DHT22;25454;49.878;8.618;2023-06-14T16:30:21;25.30;43.00
39779;DHT22;25454;49.878;8.618;2023-06-14T16:35:22;25.40;43.00
39779;DHT22;25454;49.878;8.618;2023-06-14T16:40:23;25.70;44.40
39779;DHT22;25454;49.878;8.618;2023-06-14T16:45:23;25.80;44.20
39779;DHT22;25454;49.878;8.618;2023-06-14T16:50:24;25.60;43.80
39779;DHT22;25454;49.878;8.618;2023-06-14T16:55:24;25.40;44.90
39779;DHT22;25454;49.878;8.618;2023-06-14T17:00:28;25.30;44.90
39779;DHT22;25454;49.878;8.618;2023-06-14T17:05:29;25.00;45.80
39779;DHT22;25454;49.878;8.618;2023-06-14T17:10:29;24.70;46.90
39779;DHT22;25454;49.878;8.618;2023-06-14T17:15:30;24.60;47.70
39779;DHT22;25454;49.878;8.618;2023-06-14T17:20:30;24.50;48.30
39779;DHT22;25454;49.878;8.618;2023-06-14T17:25:31;24.50;48.80
39779;DHT22;25454;49.878;8.618;2023-06-14T17:30:31;24.60;48.30
39779;DHT22;25454;49.878;8.618;2023-06-14T17:35:32;24.50;48.30
39779;DHT22;25454;49.878;8.618;2023-06-14T17:40:33;24.40;49.00
39779;DHT22;25454;49.878;8.618;2023-06-14T17:45:34;24.30;49.30
39779;DHT22;25454;49.878;8.618;2023-06-14T17:50:34;24.20;48.50
39779;DHT22;25454;49.878;8.618;2023-06-14T17:55:39;24.30;48.80
39779;DHT22;25454;49.878;8.618;2023-06-14T18:00:39;24.50;48.40
39779;DHT22;25454;49.878;8.618;2023-06-14T18:05:43;24.50;48.40
39779;DHT22;25454;49.878;8.618;2023-06-14T18:10:44;24.40;48.80
39779;DHT22;25454;49.878;8.618;2023-06-14T18:15:45;24.30;48.90
39779;DHT22;25454;49.878;8.618;2023-06-14T18:20:46;24.20;49.50
39779;DHT22;25454;49.878;8.618;2023-06-14T18:25:47;24.00;50.50
39779;DHT22;25454;49.878;8.618;2023-06-14T18:30:47;23.90;50.70
39779;DHT22;25454;49.878;8.618;2023-06-14T18:35:48;23.70;49.90
39779;DHT22;25454;49.878;8.618;2023-06-14T18:40:48;23.60;50.30
39779;DHT22;25454;49.878;8.618;2023-06-14T18:45:51;23.40;50.90
39779;DHT22;25454;49.878;8.618;2023-06-14T18:50:52;23.30;51.70
39779;DHT22;25454;49.878;8.618;2023-06-14T18:55:53;23.10;52.20
39779;DHT22;25454;49.878;8.618;2023-06-14T19:00:54;23.00;52.80
39779;DHT22;25454;49.878;8.618;2023-06-14T19:05:54;22.90;53.20
39779;DHT22;25454;49.878;8.618;2023-06-14T19:10:57;22.70;53.70
39779;DHT22;25454;49.878;8.618;2023-06-14T19:15:58;22.60;54.20
39779;DHT22;25454;49.878;8.618;2023-06-14T19:20:59;22.40;54.70
39779;DHT22;25454;49.878;8.618;2023-06-14T19:25:59;22.30;55.20
39779;DHT22;25454;49.878;8.618;2023-06-14T19:31:01;22.10;55.60
39779;DHT22;25454;49.878;8.618;2023-06-14T19:36:02;22.00;55.80
39779;DHT22;25454;49.878;8.618;2023-06-14T19:41:02;21.90;55.60
39779;DHT22;25454;49.878;8.618;2023-06-14T19:46:03;21.80;55.50
39779;DHT22;25454;49.878;8.618;2023-06-14T19:51:03;21.70;55.80
39779;DHT22;25454;49.878;8.618;2023-06-14T19:56:04;21.60;56.20
39779;DHT22;25454;49.878;8.618;2023-06-14T20:01:07;21.50;56.50
39779;DHT22;25454;49.878;8.618;2023-06-14T20:06:07;21.40;56.90
39779;DHT22;25454;49.878;8.618;2023-06-14T20:11:11;21.20;57.30
39779;DHT22;25454;49.878;8.618;2023-06-14T20:16:16;21.10;57.70
39779;DHT22;25454;49.878;8.618;2023-06-14T20:21:17;21.00;58.10
39779;DHT22;25454;49.878;8.618;2023-06-14T20:26:17;20.90;58.30
39779;DHT22;25454;49.878;8.618;2023-06-14T20:31:19;20.80;58.70
39779;DHT22;25454;49.878;8.618;2023-06-14T20:36:19;20.70;59.00
39779;DHT22;25454;49.878;8.618;2023-06-14T20:41:21;20.70;59.30
39779;DHT22;25454;49.878;8.618;2023-06-14T20:46:21;20.60;59.70
39779;DHT22;25454;49.878;8.618;2023-06-14T20:51:28;20.50;60.00
39779;DHT22;25454;49.878;8.618;2023-06-14T20:56:28;20.30;60.20
39779;DHT22;25454;49.878;8.618;2023-06-14T21:01:29;20.20;60.70
39779;DHT22;25454;49.878;8.618;2023-06-14T21:06:35;20.20;61.20
39779;DHT22;25454;49.878;8.618;2023-06-14T21:11:38;20.10;61.50
39779;DHT22;25454;49.878;8.618;2023-06-14T21:16:42;20.00;61.80
39779;DHT22;25454;49.878;8.618;2023-06-14T21:21:42;20.00;62.40
39779;DHT22;25454;49.878;8.618;2023-06-14T21:26:43;19.90;62.70
39779;DHT22;25454;49.878;8.618;2023-06-14T21:31:44;19.80;62.90
39779;DHT22;25454;49.878;8.618;2023-06-14T21:36:45;19.70;63.60
39779;DHT22;25454;49.878;8.618;2023-06-14T21:41:45;19.60;64.10
39779;DHT22;25454;49.878;8.618;2023-06-14T21:46:46;19.50;64.60
39779;DHT22;25454;49.878;8.618;2023-06-14T21:51:47;19.40;65.20
39779;DHT22;25454;49.878;8.618;2023-06-14T21:56:47;19.30;65.80
39779;DHT22;25454;49.878;8.618;2023-06-14T22:01:48;19.20;66.50
39779;DHT22;25454;49.878;8.618;2023-06-14T22:06:48;19.10;66.90
39779;DHT22;25454;49.878;8.618;2023-06-14T22:11:49;19.10;67.20
39779;DHT22;25454;49.878;8.618;2023-06-14T22:16:49;19.00;67.70
39779;DHT22;25454;49.878;8.618;2023-06-14T22:21:51;18.90;67.90
39779;DHT22;25454;49.878;8.618;2023-06-14T22:26:52;18.80;68.50
39779;DHT22;25454;49.878;8.618;2023-06-14T22:31:56;18.70;69.00
39779;DHT22;25454;49.878;8.618;2023-06-14T22:36:57;18.60;69.60
39779;DHT22;25454;49.878;8.618;2023-06-14T22:42:04;18.50;70.00
39779;DHT22;25454;49.878;8.618;2023-06-14T22:47:06;18.40;70.50
39779;DHT22;25454;49.878;8.618;2023-06-14T22:52:11;18.30;70.90
39779;DHT22;25454;49.878;8.618;2023-06-14T22:57:13;18.30;71.10
39779;DHT22;25454;49.878;8.618;2023-06-14T23:02:18;18.20;71.30
39779;DHT22;25454;49.878;8.618;2023-06-14T23:07:18;18.10;71.50
39779;DHT22;25454;49.878;8.618;2023-06-14T23:12:30;18.10;72.00
39779;DHT22;25454;49.878;8.618;2023-06-14T23:17:30;18.10;72.00
39779;DHT22;25454;49.878;8.618;2023-06-14T23:22:31;18.10;72.20
39779;DHT22;25454;49.878;8.618;2023-06-14T23:27:35;18.00;72.30
39779;DHT22;25454;49.878;8.618;2023-06-14T23:32:37;17.80;72.80
39779;DHT22;25454;49.878;8.618;2023-06-14T23:37:39;17.80;72.80
39779;DHT22;25454;49.878;8.618;2023-06-14T23:42:41;17.80;72.90
39779;DHT22;25454;49.878;8.618;2023-06-14T23:47:42;17.70;73.10
39779;DHT22;25454;49.878;8.618;2023-06-14T23:52:43;17.70;73.30
39779;DHT22;25454;49.878;8.618;2023-06-14T23:57:44;17.70;73.20
